createdAt,value
2018-06-13T00:00:09.890Z,101122.11
2018-06-13T00:02:38.203Z,101111.16
2018-06-13T00:05:07.701Z,101117.13
2018-06-13T00:07:35.997Z,101119.92
2018-06-13T00:10:04.367Z,101120.84
2018-06-13T00:12:32.653Z,101116.16
2018-06-13T00:15:02.985Z,101120.78
2018-06-13T00:17:31.269Z,101123.42
2018-06-13T00:19:59.585Z,101122.73
2018-06-13T00:22:28.991Z,101122.21
2018-06-13T00:24:57.325Z,101119.56
2018-06-13T00:27:25.689Z,101129.47
2018-06-13T00:29:54.052Z,101126.59
2018-06-13T00:32:22.349Z,101129.11
2018-06-13T00:34:50.710Z,101127.38
2018-06-13T00:37:19.031Z,101133.77
2018-06-13T00:39:47.409Z,101128.34
2018-06-13T00:42:15.746Z,101131.13
2018-06-13T00:44:44.121Z,101135.03
2018-06-13T00:47:12.461Z,101142.13
2018-06-13T00:49:40.853Z,101135.28
2018-06-13T00:52:09.155Z,101137.27
2018-06-13T00:54:37.440Z,101135.53
2018-06-13T00:57:05.757Z,101142.69
2018-06-13T00:59:34.076Z,101142.30
2018-06-13T01:02:05.517Z,101134.98
2018-06-13T01:04:33.862Z,101131.31
2018-06-13T01:07:02.214Z,101127.78
2018-06-13T01:09:30.521Z,101123.09
2018-06-13T01:11:58.942Z,101132.15
2018-06-13T01:14:27.278Z,101131.00
2018-06-13T01:16:55.990Z,101132.97
2018-06-13T01:19:24.296Z,101136.50
2018-06-13T01:21:53.705Z,101132.14
2018-06-13T01:24:22.020Z,101140.34
2018-06-13T01:26:50.373Z,101136.94
2018-06-13T01:29:18.666Z,101136.55
2018-06-13T01:31:47.014Z,101129.13
2018-06-13T01:34:16.777Z,101131.62
2018-06-13T01:36:45.070Z,101135.56
2018-06-13T01:39:13.377Z,101134.19
2018-06-13T01:41:41.773Z,101133.58
2018-06-13T01:44:10.085Z,101126.97
2018-06-13T01:46:38.363Z,101129.36
2018-06-13T01:49:06.707Z,101133.66
2018-06-13T01:51:34.957Z,101131.23
2018-06-13T01:54:03.278Z,101121.09
2018-06-13T01:56:31.565Z,101135.34
2018-06-13T01:58:59.901Z,101132.59
2018-06-13T02:01:28.204Z,101130.00
2018-06-13T02:03:56.546Z,101130.78
2018-06-13T02:06:24.849Z,101126.01
2018-06-13T02:08:53.173Z,101127.97
2018-06-13T02:11:21.514Z,101125.91
2018-06-13T02:13:49.873Z,101126.73
2018-06-13T02:16:19.286Z,101119.88
2018-06-13T02:18:47.601Z,101127.23
2018-06-13T02:21:15.922Z,101124.90
2018-06-13T02:23:45.205Z,101121.81
2018-06-13T02:26:14.651Z,101127.31
2018-06-13T02:28:42.951Z,101130.42
2018-06-13T02:31:11.290Z,101128.55
2018-06-13T02:33:39.587Z,101127.33
2018-06-13T02:36:10.047Z,101128.64
2018-06-13T02:38:38.342Z,101130.39
2018-06-13T02:41:06.713Z,101125.88
2018-06-13T02:43:35.037Z,101123.20
2018-06-13T02:46:03.359Z,101124.26
2018-06-13T02:48:31.641Z,101119.25
2018-06-13T02:51:01.141Z,101123.96
2018-06-13T02:53:29.417Z,101125.33
2018-06-13T02:55:57.753Z,101132.74
2018-06-13T02:58:26.111Z,101131.72
2018-06-13T03:00:54.384Z,101130.54
2018-06-13T03:03:22.712Z,101131.38
2018-06-13T03:05:50.998Z,101131.77
2018-06-13T03:08:19.314Z,101132.60
2018-06-13T03:10:47.617Z,101131.41
2018-06-13T03:13:15.958Z,101133.62
2018-06-13T03:15:44.233Z,101141.70
2018-06-13T03:18:12.593Z,101144.73
2018-06-13T03:20:40.885Z,101147.99
2018-06-13T03:23:09.217Z,101147.11
2018-06-13T03:25:38.577Z,101152.22
2018-06-13T03:28:06.982Z,101149.45
2018-06-13T03:30:35.268Z,101139.90
2018-06-13T03:33:03.601Z,101139.90
2018-06-13T03:35:31.898Z,101139.21
2018-06-13T03:38:00.214Z,101137.27
2018-06-13T03:40:29.557Z,101134.08
2018-06-13T03:42:57.885Z,101140.72
2018-06-13T03:45:26.166Z,101141.69
2018-06-13T03:47:54.465Z,101139.14
2018-06-13T03:50:22.779Z,101140.87
2018-06-13T03:52:51.094Z,101134.14
2018-06-13T03:55:19.412Z,101134.42
2018-06-13T03:57:47.701Z,101133.26
2018-06-13T04:00:16.025Z,101133.53
2018-06-13T04:02:45.386Z,101131.55
2018-06-13T04:05:13.704Z,101134.61
2018-06-13T04:07:42.006Z,101127.55
2018-06-13T04:10:10.321Z,101128.89
2018-06-13T04:12:38.625Z,101125.36
2018-06-13T04:15:06.957Z,101135.80
2018-06-13T04:17:35.292Z,101128.52
2018-06-13T04:20:03.696Z,101137.42
2018-06-13T04:22:31.973Z,101138.05
2018-06-13T04:25:00.289Z,101135.16
2018-06-13T04:27:28.693Z,101139.33
2018-06-13T04:29:56.994Z,101143.70
2018-06-13T04:32:25.313Z,101141.41
2018-06-13T04:34:53.589Z,101143.89
2018-06-13T04:37:21.933Z,101135.54
2018-06-13T04:39:50.244Z,101135.44
2018-06-13T04:42:18.575Z,101138.06
2018-06-13T04:44:46.854Z,101134.48
2018-06-13T04:47:15.174Z,101140.92
2018-06-13T04:49:43.448Z,101140.42
2018-06-13T04:52:12.857Z,101140.12
2018-06-13T04:54:41.158Z,101135.39
2018-06-13T04:57:11.626Z,101133.20
2018-06-13T04:59:39.889Z,101139.29
2018-06-13T05:02:08.169Z,101144.58
2018-06-13T05:04:36.428Z,101136.84
2018-06-13T05:07:04.700Z,101137.45
2018-06-13T05:09:32.985Z,101140.88
2018-06-13T05:12:01.273Z,101134.06
2018-06-13T05:14:29.525Z,101138.40
2018-06-13T05:16:57.821Z,101140.72
2018-06-13T05:19:26.077Z,101133.39
2018-06-13T05:21:54.325Z,101139.80
2018-06-13T05:24:22.613Z,101144.30
2018-06-13T05:26:50.901Z,101144.61
2018-06-13T05:29:19.185Z,101150.11
2018-06-13T05:31:47.461Z,101154.25
2018-06-13T05:34:15.749Z,101157.34
2018-06-13T05:36:44.001Z,101160.42
2018-06-13T05:39:12.289Z,101158.09
2018-06-13T05:41:40.797Z,101158.87
2018-06-13T05:44:09.100Z,101148.84
2018-06-13T05:46:37.541Z,101158.63
2018-06-13T05:49:05.829Z,101158.17
2018-06-13T05:51:34.121Z,101153.19
2018-06-13T05:54:02.412Z,101155.36
2018-06-13T05:56:30.670Z,101152.71
2018-06-13T05:58:58.943Z,101157.78
2018-06-13T06:01:27.243Z,101155.02
2018-06-13T06:03:55.496Z,101163.38
2018-06-13T06:06:24.798Z,101158.45
2018-06-13T06:08:53.069Z,101161.08
2018-06-13T06:11:21.402Z,101169.47
2018-06-13T06:13:49.671Z,101169.66
2018-06-13T06:16:17.945Z,101163.33
2018-06-13T06:18:46.252Z,101172.00
2018-06-13T06:21:14.534Z,101172.64
2018-06-13T06:23:42.829Z,101174.23
2018-06-13T06:26:11.122Z,101176.33
2018-06-13T06:28:39.396Z,101181.73
2018-06-13T06:31:07.748Z,101185.07
2018-06-13T06:33:36.041Z,101185.46
2018-06-13T06:36:05.347Z,101190.33
2018-06-13T06:38:33.599Z,101189.81
2018-06-13T06:41:02.918Z,101189.60
2018-06-13T06:43:31.226Z,101188.16
2018-06-13T06:45:59.509Z,101184.53
2018-06-13T06:48:27.778Z,101187.54
2018-06-13T06:50:56.077Z,101189.20
2018-06-13T06:53:24.491Z,101193.16
2018-06-13T06:55:52.791Z,101193.13
2018-06-13T06:58:21.157Z,101195.28
2018-06-13T07:00:49.442Z,101199.65
2018-06-13T07:03:17.770Z,101199.98
2018-06-13T07:05:46.041Z,101205.52
2018-06-13T07:08:14.358Z,101207.89
2018-06-13T07:10:42.645Z,101206.64
2018-06-13T07:13:14.678Z,101201.55
2018-06-13T07:15:44.005Z,101209.16
2018-06-13T07:18:12.333Z,101206.60
2018-06-13T07:20:41.656Z,101210.40
2018-06-13T07:23:11.101Z,101213.98
2018-06-13T07:25:39.365Z,101216.94
2018-06-13T07:28:07.688Z,101217.75
2018-06-13T07:30:37.023Z,101212.80
2018-06-13T07:33:07.365Z,101209.27
2018-06-13T07:35:35.631Z,101199.63
2018-06-13T07:38:03.965Z,101203.49
2018-06-13T07:40:32.213Z,101196.23
2018-06-13T07:43:00.517Z,101203.78
2018-06-13T07:45:28.797Z,101201.26
2018-06-13T07:47:57.088Z,101212.41
2018-06-13T07:50:25.334Z,101208.27
2018-06-13T07:52:54.149Z,101203.14
2018-06-13T07:55:23.478Z,101210.13
2018-06-13T07:57:51.710Z,101206.03
2018-06-13T08:00:20.039Z,101200.48
2018-06-13T08:02:48.309Z,101206.92
2018-06-13T08:05:16.574Z,101202.16
2018-06-13T08:07:45.153Z,101201.36
2018-06-13T08:10:13.409Z,101195.67
2018-06-13T08:12:41.657Z,101190.39
2018-06-13T08:15:09.946Z,101197.34
2018-06-13T08:17:38.225Z,101186.99
2018-06-13T08:20:08.600Z,101189.48
2018-06-13T08:22:36.853Z,101192.38
2018-06-13T08:25:05.129Z,101196.02
2018-06-13T08:27:33.402Z,101198.30
2018-06-13T08:30:01.686Z,101195.97
2018-06-13T08:32:29.946Z,101194.80
2018-06-13T08:34:58.237Z,101195.69
2018-06-13T08:37:26.510Z,101198.73
2018-06-13T08:39:54.765Z,101201.90
2018-06-13T08:42:26.473Z,101194.94
2018-06-13T08:44:58.412Z,101199.83
2018-06-13T08:47:26.685Z,101200.34
2018-06-13T08:49:55.925Z,101202.52
2018-06-13T08:52:24.201Z,101193.63
2018-06-13T08:54:52.448Z,101208.30
2018-06-13T08:57:20.733Z,101205.20
2018-06-13T08:59:49.984Z,101204.16
2018-06-13T09:02:18.271Z,101213.92
2018-06-13T09:04:46.517Z,101215.06
2018-06-13T09:07:14.789Z,101216.23
2018-06-13T09:09:43.038Z,101215.57
2018-06-13T09:12:12.416Z,101218.12
2018-06-13T09:14:40.657Z,101217.39
2018-06-13T09:17:08.927Z,101210.94
2018-06-13T09:19:37.216Z,101216.17
2018-06-13T09:22:05.481Z,101223.52
2018-06-13T09:24:33.728Z,101223.53
2018-06-13T09:27:02.057Z,101216.54
2018-06-13T09:29:30.438Z,101201.62
2018-06-13T09:31:58.691Z,101213.52
2018-06-13T09:34:26.995Z,101216.72
2018-06-13T09:36:55.233Z,101212.78
2018-06-13T09:39:23.654Z,101210.37
2018-06-13T09:41:57.101Z,101219.42
2018-06-13T09:44:25.377Z,101204.96
2018-06-13T09:46:54.705Z,101220.00
2018-06-13T09:49:23.002Z,101211.39
2018-06-13T09:51:51.249Z,101222.14
2018-06-13T09:54:19.565Z,101213.61
2018-06-13T09:56:47.964Z,101215.63
2018-06-13T09:59:20.145Z,101213.78
2018-06-13T10:01:53.336Z,101211.51
2018-06-13T10:04:22.255Z,101213.08
2018-06-13T10:06:50.569Z,101198.47
2018-06-13T10:09:18.868Z,101222.57
2018-06-13T10:11:47.194Z,101219.99
2018-06-13T10:14:15.757Z,101210.37
2018-06-13T10:16:45.082Z,101213.13
2018-06-13T10:19:14.382Z,101193.44
2018-06-13T10:21:43.460Z,101212.81
2018-06-13T10:24:11.757Z,101220.19
2018-06-13T10:26:40.130Z,101220.02
2018-06-13T10:29:08.464Z,101219.02
2018-06-13T10:31:36.910Z,101225.30
2018-06-13T10:34:05.370Z,101231.56
2018-06-13T10:36:33.695Z,101228.66
2018-06-13T10:39:02.041Z,101233.15
2018-06-13T10:41:30.310Z,101234.42
2018-06-13T10:43:58.573Z,101233.16
2018-06-13T10:46:26.868Z,101225.33
2018-06-13T10:48:55.121Z,101232.11
2018-06-13T10:51:23.422Z,101237.39
2018-06-13T10:53:51.722Z,101236.29
2018-06-13T10:56:20.070Z,101230.22
2018-06-13T10:58:48.431Z,101234.70
2018-06-13T11:01:16.717Z,101233.75
2018-06-13T11:03:44.981Z,101235.52
2018-06-13T11:06:13.249Z,101244.16
2018-06-13T11:08:41.547Z,101245.14
2018-06-13T11:11:09.811Z,101241.87
2018-06-13T11:13:38.208Z,101245.27
2018-06-13T11:16:06.531Z,101252.11
2018-06-13T11:18:34.960Z,101251.17
2018-06-13T11:21:03.213Z,101252.87
2018-06-13T11:23:31.539Z,101238.10
2018-06-13T11:25:59.889Z,101249.06
2018-06-13T11:28:28.185Z,101249.98
2018-06-13T11:30:56.430Z,101249.98
2018-06-13T11:33:25.771Z,101248.56
2018-06-13T11:35:54.032Z,101249.75
2018-06-13T11:38:22.333Z,101248.80
2018-06-13T11:40:50.586Z,101258.45
2018-06-13T11:43:18.981Z,101249.72
2018-06-13T11:45:47.254Z,101246.63
2018-06-13T11:48:15.539Z,101262.91
2018-06-13T11:50:43.813Z,101256.32
2018-06-13T11:53:12.057Z,101252.36
2018-06-13T11:55:40.359Z,101234.80
2018-06-13T11:58:08.613Z,101264.63
2018-06-13T12:00:36.905Z,101264.30
2018-06-13T12:03:05.170Z,101258.50
2018-06-13T12:05:33.449Z,101256.64
2018-06-13T12:08:01.701Z,101255.55
2018-06-13T12:10:29.982Z,101253.66
2018-06-13T12:12:58.281Z,101256.36
2018-06-13T12:15:26.605Z,101257.94
2018-06-13T12:17:54.887Z,101240.73
2018-06-13T12:20:23.158Z,101250.66
2018-06-13T12:22:51.561Z,101258.68
2018-06-13T12:25:19.977Z,101266.63
2018-06-13T12:27:48.317Z,101268.59
2018-06-13T12:30:16.569Z,101267.13
2018-06-13T12:32:44.873Z,101271.58
2018-06-13T12:35:13.120Z,101274.48
2018-06-13T12:37:41.397Z,101269.55
2018-06-13T12:40:09.668Z,101264.70
2018-06-13T12:42:37.998Z,101276.42
2018-06-13T12:45:06.266Z,101269.61
2018-06-13T12:47:34.553Z,101278.05
2018-06-13T12:50:03.051Z,101273.27
2018-06-13T12:52:31.402Z,101277.24
2018-06-13T12:54:59.799Z,101278.24
2018-06-13T12:57:28.169Z,101278.16
2018-06-13T12:59:57.456Z,101273.05
2018-06-13T13:02:26.301Z,101274.02
2018-06-13T13:04:54.549Z,101277.05
2018-06-13T13:07:22.901Z,101269.97
2018-06-13T13:09:51.205Z,101279.13
2018-06-13T13:12:20.676Z,101274.41
2018-06-13T13:14:48.969Z,101280.51
2018-06-13T13:17:17.413Z,101263.11
2018-06-13T13:19:45.730Z,101275.23
2018-06-13T13:22:14.069Z,101277.41
2018-06-13T13:24:42.377Z,101276.48
2018-06-13T13:27:10.729Z,101285.36
2018-06-13T13:29:39.028Z,101293.79
2018-06-13T13:32:07.469Z,101281.99
2018-06-13T13:34:35.788Z,101294.96
2018-06-13T13:37:04.130Z,101292.61
2018-06-13T13:39:32.539Z,101300.73
2018-06-13T13:42:00.815Z,101298.37
2018-06-13T13:44:29.053Z,101297.27
2018-06-13T13:46:58.312Z,101307.91
2018-06-13T13:49:26.737Z,101302.61
2018-06-13T13:51:55.163Z,101298.75
2018-06-13T13:54:23.489Z,101300.73
2018-06-13T13:56:51.797Z,101294.16
2018-06-13T13:59:20.055Z,101301.44
2018-06-13T14:01:48.359Z,101309.39
2018-06-13T14:04:16.603Z,101296.50
2018-06-13T14:06:44.915Z,101307.84
2018-06-13T14:09:13.259Z,101312.39
2018-06-13T14:11:41.721Z,101307.72
2018-06-13T14:14:09.997Z,101312.06
2018-06-13T14:16:38.301Z,101322.31
2018-06-13T14:19:06.561Z,101321.33
2018-06-13T14:21:34.861Z,101314.05
2018-06-13T14:24:03.100Z,101316.67
2018-06-13T14:26:31.434Z,101310.39
2018-06-13T14:28:59.773Z,101315.69
2018-06-13T14:31:28.077Z,101307.72
2018-06-13T14:33:56.457Z,101309.41
2018-06-13T14:36:24.818Z,101311.70
2018-06-13T14:38:53.113Z,101311.85
2018-06-13T14:41:21.628Z,101308.86
2018-06-13T14:43:50.221Z,101312.58
2018-06-13T14:46:18.768Z,101311.30
2018-06-13T14:48:47.064Z,101315.45
2018-06-13T14:51:15.385Z,101320.77
2018-06-13T14:53:43.661Z,101312.59
2018-06-13T14:56:18.147Z,101321.62
2018-06-13T14:58:46.485Z,101323.59
2018-06-13T15:01:14.746Z,101316.51
2018-06-13T15:03:43.037Z,101323.64
2018-06-13T15:06:11.748Z,101322.93
2018-06-13T15:08:40.024Z,101322.01
2018-06-13T15:11:09.390Z,101321.34
2018-06-13T15:13:37.664Z,101332.99
2018-06-13T15:16:05.925Z,101300.30
2018-06-13T15:18:34.238Z,101323.75
2018-06-13T15:21:02.526Z,101318.70
2018-06-13T15:23:30.801Z,101324.00
2018-06-13T15:25:59.110Z,101320.98
2018-06-13T15:28:27.411Z,101334.59
2018-06-13T15:30:55.685Z,101325.63
2018-06-13T15:33:24.305Z,101328.28
2018-06-13T15:35:52.605Z,101325.54
2018-06-13T15:38:20.869Z,101329.53
2018-06-13T15:40:49.133Z,101339.26
2018-06-13T15:43:17.369Z,101332.83
2018-06-13T15:45:46.569Z,101333.16
2018-06-13T15:48:14.820Z,101333.30
2018-06-13T15:50:43.113Z,101327.94
2018-06-13T15:53:11.356Z,101325.93
2018-06-13T15:55:39.704Z,101342.55
2018-06-13T15:58:07.993Z,101328.87
2018-06-13T16:00:36.317Z,101340.77
2018-06-13T16:03:05.925Z,101345.25
2018-06-13T16:05:34.947Z,101341.13
2018-06-13T16:08:03.237Z,101338.63
2018-06-13T16:10:31.723Z,101341.53
2018-06-13T16:12:59.990Z,101344.06
2018-06-13T16:15:28.343Z,101348.11
2018-06-13T16:17:56.627Z,101345.89
2018-06-13T16:20:24.881Z,101348.50
2018-06-13T16:22:53.160Z,101345.83
2018-06-13T16:25:21.453Z,101341.02
2018-06-13T16:27:49.759Z,101331.09
2018-06-13T16:30:18.018Z,101335.97
2018-06-13T16:32:46.306Z,101343.77
2018-06-13T16:35:14.544Z,101354.38
2018-06-13T16:37:42.843Z,101350.05
2018-06-13T16:40:11.097Z,101356.43
2018-06-13T16:42:39.401Z,101359.36
2018-06-13T16:45:07.669Z,101369.03
2018-06-13T16:47:35.975Z,101371.34
2018-06-13T16:50:14.245Z,101373.92
2018-06-13T16:52:54.201Z,101378.51
2018-06-13T16:55:24.057Z,101378.73
2018-06-13T16:57:52.632Z,101378.33
2018-06-13T17:00:21.845Z,101382.42
2018-06-13T17:02:50.715Z,101377.08
2018-06-13T17:05:19.001Z,101389.83
2018-06-13T17:07:47.775Z,101391.62
2018-06-13T17:10:16.084Z,101392.38
2018-06-13T17:12:44.336Z,101389.20
2018-06-13T17:15:12.633Z,101390.45
2018-06-13T17:17:40.869Z,101398.70
2018-06-13T17:20:09.153Z,101397.64
2018-06-13T17:22:44.036Z,101405.47
2018-06-13T17:25:12.318Z,101409.48
2018-06-13T17:27:40.607Z,101412.78
2018-06-13T17:30:08.929Z,101411.82
2018-06-13T17:32:37.189Z,101417.01
2018-06-13T17:35:05.528Z,101406.17
2018-06-13T17:37:33.777Z,101415.48
2018-06-13T17:40:02.062Z,101415.41
2018-06-13T17:42:30.307Z,101415.53
2018-06-13T17:44:58.622Z,101423.50
2018-06-13T17:47:26.883Z,101419.72
2018-06-13T17:49:55.192Z,101416.36
2018-06-13T17:52:23.473Z,101415.88
2018-06-13T17:54:51.723Z,101421.16
2018-06-13T17:57:20.025Z,101414.45
2018-06-13T17:59:48.283Z,101423.16
2018-06-13T18:02:16.570Z,101422.28
2018-06-13T18:04:44.813Z,101417.77
2018-06-13T18:07:13.137Z,101419.55
2018-06-13T18:09:41.379Z,101419.45
2018-06-13T18:12:09.657Z,101421.72
2018-06-13T18:14:37.904Z,101418.52
2018-06-13T18:17:06.244Z,101432.20
2018-06-13T18:19:34.497Z,101426.99
2018-06-13T18:22:02.780Z,101422.47
2018-06-13T18:24:31.043Z,101414.27
2018-06-13T18:26:59.379Z,101414.45
2018-06-13T18:29:27.936Z,101423.47
2018-06-13T18:31:56.201Z,101415.89
2018-06-13T18:34:24.449Z,101414.53
2018-06-13T18:36:52.881Z,101418.00
2018-06-13T18:39:21.413Z,101423.10
2018-06-13T18:41:49.667Z,101429.95
2018-06-13T18:44:17.968Z,101420.27
2018-06-13T18:46:46.251Z,101425.36
2018-06-13T18:49:14.545Z,101418.28
2018-06-13T18:51:42.815Z,101432.70
2018-06-13T18:54:11.090Z,101434.54
2018-06-13T18:56:39.345Z,101432.46
2018-06-13T18:59:07.618Z,101436.42
2018-06-13T19:01:35.857Z,101438.36
2018-06-13T19:04:04.208Z,101435.19
2018-06-13T19:06:32.423Z,101440.81
2018-06-13T19:09:00.780Z,101447.72
2018-06-13T19:11:29.116Z,101456.22
2018-06-13T19:13:57.772Z,101457.34
2018-06-13T19:16:26.160Z,101461.83
2018-06-13T19:18:54.474Z,101458.62
2018-06-13T19:21:23.772Z,101463.94
2018-06-13T19:23:52.077Z,101456.06
2018-06-13T19:26:20.542Z,101466.81
2018-06-13T19:28:48.837Z,101476.62
2018-06-13T19:31:17.301Z,101472.14
2018-06-13T19:33:45.577Z,101477.11
2018-06-13T19:36:13.937Z,101492.23
2018-06-13T19:38:42.193Z,101500.71
2018-06-13T19:41:10.461Z,101495.05
2018-06-13T19:43:39.301Z,101490.91
2018-06-13T19:46:08.013Z,101492.45
2018-06-13T19:48:41.501Z,101498.40
2018-06-13T19:51:09.765Z,101504.91
2018-06-13T19:53:43.267Z,101510.05
2018-06-13T19:56:12.495Z,101509.51
2018-06-13T19:58:40.841Z,101514.44
2018-06-13T20:01:09.165Z,101515.34
2018-06-13T20:03:42.753Z,101513.61
2018-06-13T20:06:11.553Z,101524.90
2018-06-13T20:08:39.805Z,101520.66
2018-06-13T20:11:08.147Z,101527.05
2018-06-13T20:13:41.705Z,101531.79
2018-06-13T20:16:15.354Z,101533.59
2018-06-13T20:18:49.070Z,101528.66
2018-06-13T20:21:17.417Z,101533.10
2018-06-13T20:23:45.685Z,101529.50
2018-06-13T20:26:19.249Z,101532.91
2018-06-13T20:28:52.897Z,101520.06
2018-06-13T20:31:25.358Z,101522.13
2018-06-13T20:33:53.669Z,101523.23
2018-06-13T20:36:21.936Z,101518.21
2018-06-13T20:38:50.338Z,101514.98
2018-06-13T20:41:18.596Z,101514.30
2018-06-13T20:43:46.872Z,101511.57
2018-06-13T20:46:15.134Z,101503.45
2018-06-13T20:48:43.678Z,101507.55
2018-06-13T20:51:12.053Z,101507.27
2018-06-13T20:53:40.388Z,101517.53
2018-06-13T20:56:08.689Z,101524.80
2018-06-13T20:58:36.957Z,101518.70
2018-06-13T21:01:05.542Z,101513.77
2018-06-13T21:03:33.789Z,101530.17
2018-06-13T21:06:02.065Z,101538.04
2018-06-13T21:08:30.313Z,101538.04
2018-06-13T21:10:58.587Z,101532.30
2018-06-13T21:13:26.845Z,101548.80
2018-06-13T21:15:55.140Z,101533.02
2018-06-13T21:18:23.397Z,101535.23
2018-06-13T21:20:51.682Z,101539.47
2018-06-13T21:23:19.933Z,101536.69
2018-06-13T21:25:48.217Z,101543.34
2018-06-13T21:28:16.504Z,101545.78
2018-06-13T21:30:44.769Z,101536.55
2018-06-13T21:33:13.081Z,101540.44
2018-06-13T21:35:41.453Z,101541.83
2018-06-13T21:38:09.914Z,101537.40
2018-06-13T21:40:38.359Z,101541.14
2018-06-13T21:43:06.715Z,101534.72
2018-06-13T21:45:35.109Z,101535.91
2018-06-13T21:48:03.374Z,101535.70
2018-06-13T21:50:31.615Z,101531.64
2018-06-13T21:52:59.877Z,101530.11
2018-06-13T21:55:28.158Z,101539.69
2018-06-13T21:57:56.464Z,101534.19
2018-06-13T22:00:25.621Z,101540.52
2018-06-13T22:02:53.957Z,101522.70
2018-06-13T22:05:22.210Z,101538.74
2018-06-13T22:07:50.493Z,101534.88
2018-06-13T22:10:18.758Z,101529.30
2018-06-13T22:12:47.237Z,101538.19
2018-06-13T22:15:20.629Z,101534.73
2018-06-13T22:17:48.925Z,101537.39
2018-06-13T22:20:17.187Z,101538.95
2018-06-13T22:22:45.446Z,101534.19
2018-06-13T22:25:13.722Z,101526.80
2018-06-13T22:27:42.037Z,101522.56
2018-06-13T22:30:10.379Z,101525.95
2018-06-13T22:32:38.597Z,101532.39
2018-06-13T22:35:06.926Z,101534.80
2018-06-13T22:37:35.546Z,101528.91
2018-06-13T22:40:03.940Z,101533.22
2018-06-13T22:42:32.409Z,101530.38
2018-06-13T22:45:00.686Z,101528.84
2018-06-13T22:47:28.941Z,101514.17
2018-06-13T22:49:57.257Z,101521.84
2018-06-13T22:52:25.721Z,101511.80
2018-06-13T22:54:54.249Z,101510.93
2018-06-13T22:57:22.538Z,101518.50
2018-06-13T22:59:50.797Z,101516.53
2018-06-13T23:02:19.090Z,101523.62
2018-06-13T23:04:47.383Z,101518.50
2018-06-13T23:07:15.677Z,101517.09
2018-06-13T23:09:43.945Z,101520.46
2018-06-13T23:12:12.307Z,101525.36
2018-06-13T23:14:40.555Z,101524.87
2018-06-13T23:17:09.072Z,101515.80
2018-06-13T23:31:00.678Z,101528.56
2018-06-13T23:33:28.985Z,101534.41
2018-06-13T23:35:57.268Z,101532.04
2018-06-13T23:38:25.561Z,101526.20
2018-06-13T23:40:53.856Z,101511.25
2018-06-13T23:43:22.155Z,101508.37
2018-06-13T23:45:50.425Z,101507.25
2018-06-13T23:48:18.786Z,101510.91
2018-06-13T23:50:47.086Z,101518.88
2018-06-13T23:53:15.441Z,101525.19
2018-06-13T23:55:43.746Z,101529.89
2018-06-13T23:58:12.102Z,101525.72
